createdAt,value
2022-10-05T00:01:02.578Z,85.72
2022-10-05T00:03:37.060Z,35.45
2022-10-05T00:06:06.019Z,43.53
2022-10-05T00:08:35.948Z,43.63
2022-10-05T00:11:04.174Z,29.75
2022-10-05T00:13:32.804Z,24.67
2022-10-05T00:16:13.871Z,24.33
2022-10-05T00:18:47.695Z,30.55
2022-10-05T00:21:23.434Z,32.15
2022-10-05T00:23:52.816Z,16.52
2022-10-05T00:26:23.633Z,22.13
2022-10-05T00:28:52.961Z,19.10
2022-10-05T00:31:23.729Z,22.67
2022-10-05T00:33:54.957Z,35.05
2022-10-05T00:36:23.351Z,68.75
2022-10-05T00:38:51.671Z,20.98
2022-10-05T00:41:38.852Z,25.67
2022-10-05T00:44:29.451Z,24.70
2022-10-05T00:47:08.079Z,27.50
2022-10-05T00:50:07.087Z,17.88
2022-10-05T00:52:49.999Z,16.52
2022-10-05T00:55:31.407Z,13.80
2022-10-05T00:58:13.708Z,13.85
2022-10-05T01:01:01.820Z,14.77
2022-10-05T01:03:43.875Z,12.60
2022-10-05T01:06:24.269Z,14.63
2022-10-05T01:09:04.140Z,16.17
2022-10-05T01:11:44.476Z,10.88
2022-10-05T01:14:23.435Z,10.57
2022-10-05T01:16:59.223Z,27.45
2022-10-05T01:19:52.936Z,21.98
2022-10-05T01:22:46.087Z,24.60
2022-10-05T01:25:27.418Z,16.80
2022-10-05T01:28:15.263Z,17.45
2022-10-05T01:31:08.800Z,11.25
2022-10-05T01:33:53.630Z,16.58
2022-10-05T01:36:29.865Z,9.05
2022-10-05T01:39:08.405Z,8.35
2022-10-05T01:41:58.466Z,8.35
2022-10-05T01:44:32.740Z,8.15
2022-10-05T01:47:08.406Z,14.20
2022-10-05T01:49:39.779Z,10.57
2022-10-05T01:52:24.416Z,14.35
2022-10-05T01:55:17.069Z,28.80
2022-10-05T01:58:04.564Z,33.75
2022-10-05T02:00:44.236Z,35.58
2022-10-05T02:03:20.108Z,23.88
2022-10-05T02:05:53.989Z,41.63
2022-10-05T02:08:28.860Z,53.05
2022-10-05T02:11:03.336Z,33.78
2022-10-05T02:13:41.276Z,42.97
2022-10-05T02:16:17.669Z,18.92
2022-10-05T02:18:52.851Z,26.25
2022-10-05T02:21:37.181Z,32.78
2022-10-05T02:24:20.146Z,35.65
2022-10-05T02:26:49.861Z,35.90
2022-10-05T02:29:34.783Z,19.75
2022-10-05T02:32:09.108Z,20.05
2022-10-05T02:34:40.605Z,24.30
2022-10-05T02:37:23.581Z,34.70
2022-10-05T02:40:15.855Z,16.55
2022-10-05T02:42:58.508Z,22.35
2022-10-05T02:45:39.532Z,26.40
2022-10-05T02:48:16.729Z,20.30
2022-10-05T02:50:54.895Z,18.15
2022-10-05T02:53:30.458Z,15.93
2022-10-05T02:56:14.625Z,14.00
2022-10-05T02:58:54.523Z,29.17
2022-10-05T03:01:32.446Z,12.85
2022-10-05T03:04:14.970Z,22.40
2022-10-05T03:06:55.811Z,15.73
2022-10-05T03:09:32.994Z,19.98
2022-10-05T03:12:13.990Z,18.05
2022-10-05T03:14:52.797Z,18.33
2022-10-05T03:17:32.296Z,16.52
2022-10-05T03:20:21.547Z,17.65
2022-10-05T03:22:52.486Z,21.70
2022-10-05T03:26:03.973Z,21.83
2022-10-05T03:28:43.690Z,18.42
2022-10-05T03:31:20.835Z,20.80
2022-10-05T03:34:01.684Z,15.15
2022-10-05T03:36:39.752Z,18.95
2022-10-05T03:39:16.152Z,20.65
2022-10-05T03:41:49.068Z,19.52
2022-10-05T03:44:36.487Z,16.08
2022-10-05T03:47:16.103Z,23.40
2022-10-05T03:50:00.061Z,43.97
2022-10-05T03:52:38.246Z,46.90
2022-10-05T03:55:19.800Z,18.77
2022-10-05T03:57:51.205Z,18.50
2022-10-05T04:00:30.496Z,18.55
2022-10-05T04:03:06.240Z,16.27
2022-10-05T04:05:43.255Z,26.45
2022-10-05T04:08:22.003Z,13.63
2022-10-05T04:10:53.128Z,17.27
2022-10-05T04:13:27.476Z,24.80
2022-10-05T04:16:02.060Z,25.30
2022-10-05T04:18:35.987Z,27.70
2022-10-05T04:21:11.762Z,23.38
2022-10-05T04:23:56.766Z,21.50
2022-10-05T04:26:33.338Z,26.60
2022-10-05T04:29:12.071Z,35.42
2022-10-05T04:32:03.587Z,24.17
2022-10-05T04:35:02.720Z,36.83
2022-10-05T04:37:46.731Z,37.42
2022-10-05T04:40:36.621Z,21.73
2022-10-05T04:43:13.518Z,21.25
2022-10-05T04:46:06.588Z,22.50
2022-10-05T04:49:05.021Z,21.13
2022-10-05T04:51:46.578Z,25.85
2022-10-05T04:54:27.588Z,18.98
2022-10-05T04:57:01.611Z,19.58
2022-10-05T05:00:03.114Z,11.98
2022-10-05T05:02:49.293Z,19.27
2022-10-05T05:05:28.988Z,16.08
2022-10-05T05:08:10.019Z,11.75
2022-10-05T05:11:22.323Z,17.27
2022-10-05T05:14:14.248Z,15.45
2022-10-05T05:16:46.413Z,21.60
2022-10-05T05:19:34.793Z,17.00
2022-10-05T05:22:18.340Z,15.18
2022-10-05T05:25:04.355Z,17.48
2022-10-05T05:27:42.442Z,18.40
2022-10-05T05:30:22.255Z,19.50
2022-10-05T05:33:09.276Z,13.65
2022-10-05T05:36:19.513Z,12.52
2022-10-05T05:39:03.869Z,11.13
2022-10-05T05:41:39.108Z,19.58
2022-10-05T05:44:20.824Z,12.75
2022-10-05T05:47:03.950Z,14.05
2022-10-05T05:49:56.066Z,16.45
2022-10-05T05:52:31.508Z,16.73
2022-10-05T05:55:06.451Z,14.50
2022-10-05T05:57:44.013Z,13.40
2022-10-05T06:00:22.675Z,15.02
2022-10-05T06:02:59.652Z,15.68
2022-10-05T06:05:33.515Z,16.02
2022-10-05T06:08:11.996Z,21.85
2022-10-05T06:10:44.756Z,12.55
2022-10-05T06:13:20.436Z,15.70
2022-10-05T06:15:54.290Z,24.45
2022-10-05T06:18:24.778Z,21.70
2022-10-05T06:21:01.112Z,11.18
2022-10-05T06:23:36.912Z,16.00
2022-10-05T06:26:39.561Z,18.13
2022-10-05T06:29:22.068Z,12.32
2022-10-05T06:32:06.241Z,13.85
2022-10-05T06:34:58.205Z,10.98
2022-10-05T06:37:45.626Z,17.33
2022-10-05T06:40:31.992Z,12.23
2022-10-05T06:43:36.196Z,10.20
2022-10-05T06:46:11.615Z,11.02
2022-10-05T06:48:58.513Z,10.15
2022-10-05T06:51:37.412Z,9.93
2022-10-05T06:54:21.309Z,10.98
2022-10-05T06:56:57.535Z,11.88
2022-10-05T06:59:34.326Z,10.73
2022-10-05T07:02:10.153Z,13.10
2022-10-05T07:05:25.772Z,12.32
2022-10-05T07:07:59.691Z,9.35
2022-10-05T07:10:36.597Z,10.30
2022-10-05T07:13:27.866Z,9.20
2022-10-05T07:16:00.926Z,10.52
2022-10-05T07:18:50.865Z,9.60
2022-10-05T07:21:34.504Z,11.40
2022-10-05T07:24:22.604Z,8.82
2022-10-05T07:26:57.719Z,8.50
2022-10-05T07:29:33.722Z,9.35
2022-10-05T07:32:15.572Z,9.23
2022-10-05T07:34:58.666Z,9.25
2022-10-05T07:37:51.893Z,9.23
2022-10-05T07:40:29.587Z,7.28
2022-10-05T07:43:12.714Z,10.48
2022-10-05T07:45:49.006Z,9.88
2022-10-05T07:48:21.996Z,8.73
2022-10-05T07:51:02.482Z,9.82
2022-10-05T07:53:38.547Z,8.32
2022-10-05T07:56:16.215Z,9.80
2022-10-05T07:58:48.332Z,9.27
2022-10-05T08:01:20.844Z,9.00
2022-10-05T08:03:57.793Z,9.13
2022-10-05T08:06:45.374Z,8.40
2022-10-05T08:09:38.497Z,9.40
2022-10-05T08:12:22.164Z,7.82
2022-10-05T08:14:58.315Z,8.35
2022-10-05T08:17:42.765Z,7.85
2022-10-05T08:20:34.301Z,7.82
2022-10-05T08:23:13.250Z,8.77
2022-10-05T08:25:54.686Z,8.57
2022-10-05T08:28:29.551Z,7.75
2022-10-05T08:31:05.498Z,7.75
2022-10-05T08:33:46.362Z,7.53
2022-10-05T08:36:16.926Z,9.60
2022-10-05T08:38:45.726Z,7.82
2022-10-05T08:42:07.976Z,7.30
2022-10-05T08:45:23.176Z,8.85
2022-10-05T08:48:17.258Z,11.23
2022-10-05T08:51:39.426Z,8.52
2022-10-05T08:54:46.971Z,9.48
2022-10-05T08:57:46.573Z,10.88
2022-10-05T09:00:20.721Z,7.60
2022-10-05T09:03:29.864Z,8.80
2022-10-05T09:06:27.814Z,7.85
2022-10-05T09:09:36.326Z,8.23
2022-10-05T09:12:41.477Z,7.20
2022-10-05T09:15:44.123Z,8.43
2022-10-05T09:19:03.501Z,29.50
2022-10-05T09:21:43.774Z,9.55
2022-10-05T09:24:48.522Z,9.05
2022-10-05T09:27:19.257Z,9.40
2022-10-05T09:30:20.231Z,7.90
2022-10-05T09:33:33.524Z,9.98
2022-10-05T09:36:45.051Z,8.77
2022-10-05T09:39:36.743Z,9.25
2022-10-05T09:42:50.040Z,9.30
2022-10-05T09:45:45.547Z,9.02
2022-10-05T09:48:56.333Z,8.15
2022-10-05T09:52:00.202Z,8.75
2022-10-05T09:55:24.022Z,10.07
2022-10-05T09:58:36.293Z,9.30
2022-10-05T10:01:34.483Z,10.68
2022-10-05T10:04:25.790Z,9.32
2022-10-05T10:07:26.440Z,10.90
2022-10-05T10:10:38.906Z,10.40
2022-10-05T10:13:43.302Z,12.13
2022-10-05T10:16:26.946Z,10.95
2022-10-05T10:19:21.375Z,11.55
2022-10-05T10:22:39.700Z,10.80
2022-10-05T10:26:08.670Z,10.38
2022-10-05T10:29:13.544Z,12.98
2022-10-05T10:32:22.212Z,13.82
2022-10-05T10:35:22.435Z,10.48
2022-10-05T10:38:36.467Z,10.75
2022-10-05T10:41:47.479Z,11.18
2022-10-05T10:45:09.284Z,9.60
2022-10-05T10:48:01.017Z,9.77
2022-10-05T10:51:13.877Z,10.35
2022-10-05T10:54:20.389Z,9.77
2022-10-05T10:57:19.208Z,10.07
2022-10-05T11:00:32.580Z,10.02
2022-10-05T11:03:42.995Z,8.93
2022-10-05T11:06:28.102Z,9.00
2022-10-05T11:09:31.003Z,9.73
2022-10-05T11:13:20.218Z,13.52
2022-10-05T11:16:30.468Z,9.52
2022-10-05T11:19:35.044Z,10.88
2022-10-05T11:22:37.693Z,9.18
2022-10-05T11:25:32.124Z,10.60
2022-10-05T11:28:29.301Z,9.52
2022-10-05T11:31:32.194Z,10.75
2022-10-05T11:34:38.958Z,8.68
2022-10-05T11:37:48.002Z,9.40
2022-10-05T11:41:03.331Z,8.45
2022-10-05T11:44:07.141Z,9.10
2022-10-05T11:46:44.583Z,8.48
2022-10-05T11:49:28.352Z,9.05
2022-10-05T11:52:10.107Z,10.15
2022-10-05T11:55:10.816Z,8.77
2022-10-05T11:57:52.216Z,8.55
2022-10-05T12:00:23.184Z,10.90
2022-10-05T12:03:38.747Z,12.10
2022-10-05T12:06:23.461Z,13.90
2022-10-05T12:09:05.905Z,9.82
2022-10-05T12:11:57.695Z,7.53
2022-10-05T12:14:39.402Z,9.45
2022-10-05T12:17:19.405Z,8.45
2022-10-05T12:19:55.598Z,10.65
2022-10-05T12:22:30.610Z,8.85
2022-10-05T12:25:22.824Z,8.43
2022-10-05T12:27:55.598Z,8.60
2022-10-05T12:30:36.392Z,8.27
2022-10-05T12:33:15.310Z,13.40
2022-10-05T12:35:49.714Z,9.57
2022-10-05T12:38:29.625Z,8.60
2022-10-05T12:41:10.991Z,8.93
2022-10-05T12:43:54.581Z,7.95
2022-10-05T12:46:35.639Z,7.18
2022-10-05T12:49:34.990Z,7.45
2022-10-05T12:52:06.761Z,7.10
2022-10-05T12:54:47.662Z,9.43
2022-10-05T12:57:27.066Z,7.05
2022-10-05T13:00:05.247Z,8.80
2022-10-05T13:02:43.199Z,8.50
2022-10-05T13:05:29.247Z,9.07
2022-10-05T13:08:17.843Z,9.70
2022-10-05T13:10:51.074Z,7.40
2022-10-05T13:13:47.916Z,8.50
2022-10-05T13:16:31.122Z,7.57
2022-10-05T13:19:24.031Z,7.32
2022-10-05T13:22:17.245Z,6.82
2022-10-05T13:24:59.347Z,6.38
2022-10-05T13:27:33.431Z,6.15
2022-10-05T13:30:08.454Z,10.02
2022-10-05T13:32:43.198Z,6.65
2022-10-05T13:35:40.348Z,9.73
2022-10-05T13:38:25.270Z,6.82
2022-10-05T13:41:05.944Z,9.55
2022-10-05T13:43:41.397Z,6.38
2022-10-05T13:46:19.796Z,6.32
2022-10-05T13:49:06.150Z,6.35
2022-10-05T13:51:46.881Z,9.18
2022-10-05T13:54:20.494Z,8.32
2022-10-05T13:56:55.906Z,5.20
2022-10-05T13:59:31.765Z,4.85
2022-10-05T14:02:07.057Z,7.57
2022-10-05T14:04:48.636Z,5.03
2022-10-05T14:07:34.382Z,6.82
2022-10-05T14:10:04.635Z,6.30
2022-10-05T14:12:41.864Z,5.65
2022-10-05T14:15:24.350Z,8.40
2022-10-05T14:17:52.808Z,4.68
2022-10-05T14:20:28.015Z,5.78
2022-10-05T14:23:01.908Z,5.22
2022-10-05T14:25:31.670Z,10.10
2022-10-05T14:28:04.926Z,5.30
2022-10-05T14:30:35.097Z,7.60
2022-10-05T14:33:17.510Z,7.32
2022-10-05T14:35:50.552Z,8.57
2022-10-05T14:38:23.037Z,14.43
2022-10-05T14:41:18.940Z,9.93
2022-10-05T14:43:56.947Z,8.48
2022-10-05T14:46:29.134Z,13.82
2022-10-05T14:49:17.127Z,9.10
2022-10-05T14:51:46.833Z,8.18
2022-10-05T14:54:28.606Z,13.20
2022-10-05T14:57:07.950Z,8.15
2022-10-05T15:00:12.583Z,8.20
2022-10-05T15:03:07.111Z,9.82
2022-10-05T15:05:40.962Z,7.00
2022-10-05T15:08:28.155Z,6.05
2022-10-05T15:11:04.728Z,6.93
2022-10-05T15:13:39.020Z,8.63
2022-10-05T15:16:19.929Z,7.90
2022-10-05T15:18:58.230Z,5.80
2022-10-05T15:21:45.068Z,6.72
2022-10-05T15:24:20.957Z,7.63
2022-10-05T15:26:52.049Z,7.13
2022-10-05T15:29:52.220Z,5.57
2022-10-05T15:32:38.083Z,10.18
2022-10-05T15:35:36.830Z,4.97
2022-10-05T15:38:21.079Z,4.93
2022-10-05T15:41:10.042Z,5.20
2022-10-05T15:44:06.141Z,5.28
2022-10-05T15:46:41.495Z,4.65
2022-10-05T15:49:29.006Z,4.03
2022-10-05T15:52:07.225Z,7.53
2022-10-05T15:55:10.779Z,5.22
2022-10-05T15:57:52.128Z,4.50
2022-10-05T16:00:23.208Z,3.92
2022-10-05T16:03:02.333Z,4.88
2022-10-05T16:06:19.707Z,5.45
2022-10-05T16:09:11.820Z,3.83
2022-10-05T16:12:00.374Z,4.15
2022-10-05T16:14:55.004Z,4.20
2022-10-05T16:17:37.949Z,5.97
2022-10-05T16:20:23.171Z,4.90
2022-10-05T16:22:59.710Z,5.32
2022-10-05T16:25:46.273Z,4.90
2022-10-05T16:28:29.966Z,6.68
2022-10-05T16:31:09.766Z,3.33
2022-10-05T16:33:54.827Z,3.30
2022-10-05T16:36:37.408Z,3.72
2022-10-05T16:39:16.836Z,5.55
2022-10-05T16:41:56.590Z,4.22
2022-10-05T16:44:40.494Z,9.70
2022-10-05T16:47:36.109Z,5.70
2022-10-05T16:50:20.895Z,6.50
2022-10-05T16:52:57.215Z,6.22
2022-10-05T16:55:36.452Z,3.70
2022-10-05T16:58:15.922Z,4.70
2022-10-05T17:01:02.115Z,6.00
2022-10-05T17:03:50.842Z,7.95
2022-10-05T17:06:45.978Z,8.50
2022-10-05T17:09:52.303Z,6.35
2022-10-05T17:12:47.047Z,5.60
2022-10-05T17:15:37.281Z,4.95
2022-10-05T17:18:25.001Z,7.95
2022-10-05T17:21:05.488Z,5.80
2022-10-05T17:23:53.518Z,5.35
2022-10-05T17:26:53.442Z,9.55
2022-10-05T17:29:30.404Z,6.22
2022-10-05T17:32:11.197Z,6.45
2022-10-05T17:34:41.461Z,8.63
2022-10-05T17:37:36.601Z,6.20
2022-10-05T17:40:34.390Z,7.03
2022-10-05T17:43:24.102Z,9.55
2022-10-05T17:46:02.115Z,8.15
2022-10-05T17:49:17.779Z,6.32
2022-10-05T17:52:22.772Z,8.65
2022-10-05T17:55:30.121Z,5.90
2022-10-05T17:58:02.647Z,6.80
2022-10-05T18:00:57.174Z,9.45
2022-10-05T18:03:42.848Z,8.00
2022-10-05T18:06:43.399Z,5.43
2022-10-05T18:09:44.359Z,8.65
2022-10-05T18:12:48.330Z,6.45
2022-10-05T18:15:48.782Z,6.07
2022-10-05T18:18:59.247Z,5.72
2022-10-05T18:21:39.676Z,5.45
2022-10-05T18:24:46.089Z,6.90
2022-10-05T18:27:54.265Z,4.65
2022-10-05T18:30:25.367Z,9.00
2022-10-05T18:33:47.643Z,5.28
2022-10-05T18:36:36.898Z,9.68
2022-10-05T18:39:18.812Z,7.95
2022-10-05T18:42:00.879Z,5.70
2022-10-05T18:44:40.745Z,5.20
2022-10-05T18:47:19.616Z,3.85
2022-10-05T18:50:17.591Z,9.27
2022-10-05T18:53:09.289Z,8.30
2022-10-05T18:55:44.821Z,5.80
2022-10-05T18:58:20.352Z,5.78
2022-10-05T19:01:33.912Z,6.90
2022-10-05T19:04:17.527Z,11.63
2022-10-05T19:06:58.448Z,10.55
2022-10-05T19:10:06.046Z,8.02
2022-10-05T19:12:51.516Z,9.27
2022-10-05T19:15:27.815Z,4.88
2022-10-05T19:18:34.554Z,9.73
2022-10-05T19:21:20.743Z,9.25
2022-10-05T19:24:06.921Z,7.65
2022-10-05T19:26:53.887Z,7.18
2022-10-05T19:29:37.870Z,6.65
2022-10-05T19:32:18.445Z,5.05
2022-10-05T19:35:07.331Z,9.93
2022-10-05T19:37:47.630Z,6.30
2022-10-05T19:40:24.499Z,6.47
2022-10-05T19:43:21.045Z,6.47
2022-10-05T19:46:04.253Z,5.18
2022-10-05T19:48:43.164Z,7.15
2022-10-05T19:51:27.642Z,8.45
2022-10-05T19:53:58.768Z,4.70
2022-10-05T19:56:31.360Z,6.22
2022-10-05T19:59:13.230Z,7.45
2022-10-05T20:01:45.819Z,8.07
2022-10-05T20:04:16.383Z,8.18
2022-10-05T20:06:47.968Z,5.22
2022-10-05T20:09:25.336Z,4.65
2022-10-05T20:11:54.891Z,6.63
2022-10-05T20:14:31.897Z,8.10
2022-10-05T20:17:35.802Z,7.35
2022-10-05T20:20:25.350Z,5.60
2022-10-05T20:23:22.123Z,6.47
2022-10-05T20:26:04.579Z,5.05
2022-10-05T20:28:33.566Z,5.32
2022-10-05T20:31:02.382Z,5.63
2022-10-05T20:33:31.084Z,6.22
2022-10-05T20:36:03.705Z,4.43
2022-10-05T20:38:40.029Z,5.25
2022-10-05T20:41:11.305Z,6.22
2022-10-05T20:43:40.477Z,7.78
2022-10-05T20:46:08.900Z,8.52
2022-10-05T20:48:37.279Z,6.78
2022-10-05T20:51:06.107Z,5.35
2022-10-05T20:53:35.998Z,5.10
2022-10-05T20:56:04.728Z,6.13
2022-10-05T20:58:33.053Z,7.43
2022-10-05T21:01:19.954Z,6.38
2022-10-05T21:03:49.802Z,7.93
2022-10-05T21:06:21.020Z,8.73
2022-10-05T21:08:51.476Z,4.43
2022-10-05T21:11:19.934Z,7.63
2022-10-05T21:13:49.402Z,6.15
2022-10-05T21:16:19.769Z,8.98
2022-10-05T21:18:50.423Z,7.90
2022-10-05T21:21:19.741Z,7.03
2022-10-05T21:23:51.240Z,6.05
2022-10-05T21:26:21.826Z,5.90
2022-10-05T21:28:51.832Z,7.72
2022-10-05T21:31:20.356Z,6.45
2022-10-05T21:33:48.794Z,10.35
2022-10-05T21:36:21.116Z,5.53
2022-10-05T21:38:55.765Z,9.35
2022-10-05T21:41:25.702Z,5.82
2022-10-05T21:43:55.132Z,10.48
2022-10-05T21:46:26.969Z,6.72
2022-10-05T21:48:56.020Z,9.85
2022-10-05T21:51:26.906Z,12.93
2022-10-05T21:54:01.725Z,8.93
2022-10-05T21:56:34.799Z,5.38
2022-10-05T21:59:04.920Z,5.13
2022-10-05T22:01:35.994Z,5.90
2022-10-05T22:04:04.695Z,8.18
2022-10-05T22:06:35.240Z,5.63
2022-10-05T22:09:06.419Z,5.63
2022-10-05T22:11:35.336Z,5.68
2022-10-05T22:14:03.771Z,7.70
2022-10-05T22:16:35.278Z,8.18
2022-10-05T22:19:15.935Z,11.55
2022-10-05T22:21:45.876Z,7.40
2022-10-05T22:24:16.227Z,7.93
2022-10-05T22:26:48.246Z,4.82
2022-10-05T22:29:17.539Z,5.43
2022-10-05T22:31:48.753Z,5.25
2022-10-05T22:34:18.232Z,5.97
2022-10-05T22:36:49.364Z,4.93
2022-10-05T22:39:19.427Z,6.00
2022-10-05T22:41:48.918Z,5.85
2022-10-05T22:44:17.549Z,5.13
2022-10-05T22:46:46.111Z,15.65
2022-10-05T22:49:14.766Z,8.65
2022-10-05T22:51:43.923Z,18.15
2022-10-05T22:54:12.672Z,6.00
2022-10-05T22:56:42.365Z,7.25
2022-10-05T22:59:10.924Z,7.60
2022-10-05T23:01:39.451Z,4.88
2022-10-05T23:04:09.002Z,7.60
2022-10-05T23:06:37.300Z,6.22
2022-10-05T23:09:06.420Z,8.27
2022-10-05T23:11:34.825Z,5.38
2022-10-05T23:14:04.720Z,3.90
2022-10-05T23:16:33.117Z,5.80
2022-10-05T23:19:01.865Z,5.10
2022-10-05T23:21:31.724Z,4.28
2022-10-05T23:24:00.143Z,4.43
2022-10-05T23:26:29.104Z,5.70
2022-10-05T23:28:57.511Z,6.35
2022-10-05T23:31:31.121Z,4.45
2022-10-05T23:33:59.972Z,4.57
2022-10-05T23:36:32.359Z,7.10
2022-10-05T23:39:02.906Z,4.63
2022-10-05T23:41:31.193Z,4.22
2022-10-05T23:43:59.669Z,4.53
2022-10-05T23:46:32.576Z,3.92
2022-10-05T23:49:00.893Z,5.57
2022-10-05T23:51:29.223Z,6.97
2022-10-05T23:53:57.642Z,6.93
2022-10-05T23:56:26.592Z,9.02
2022-10-05T23:58:55.300Z,3.85
